Time;durP1;ratioP1;P1;durP2;ratioP2;P2;SDS_P1;SDS_P2;PMS_P1;PMS_P2;Temp;Humidity;BMP_temperature;BMP_pressure;BME280_temperature;BME280_humidity;BME280_pressure;Samples;Min_cycle;Max_cycle;Signal;HPM_P1;HPM_P2
2024/03/24 00:01:35;;;;;;;3.27;1.23;;;15.20;69.20;;;;;;5085924;28;20077;-74
2024/03/24 00:04:01;;;;;;;2.00;1.30;;;15.20;69.20;;;;;;5069347;28;20086;-74
2024/03/24 00:06:27;;;;;;;2.40;1.50;;;15.20;69.30;;;;;;5070421;28;20044;-74
2024/03/24 00:08:53;;;;;;;4.10;1.23;;;15.20;69.20;;;;;;5085652;28;20020;-74
2024/03/24 00:11:18;;;;;;;2.13;0.90;;;15.10;69.20;;;;;;5071061;28;20024;-74
2024/03/24 00:13:44;;;;;;;4.27;1.30;;;15.20;69.20;;;;;;5086377;28;20119;-74
2024/03/24 00:16:10;;;;;;;2.30;1.03;;;15.10;69.20;;;;;;5070341;28;20055;-74
2024/03/24 00:18:35;;;;;;;3.23;1.37;;;15.10;69.20;;;;;;5070847;28;20020;-74
2024/03/24 00:21:01;;;;;;;2.23;1.10;;;15.20;69.20;;;;;;5069787;28;20082;-75
2024/03/24 00:23:27;;;;;;;3.63;1.73;;;15.10;69.10;;;;;;5085916;28;20036;-74
2024/03/24 00:25:53;;;;;;;3.23;1.40;;;15.10;69.10;;;;;;5068509;28;20034;-74
2024/03/24 00:28:18;;;;;;;1.50;0.90;;;15.10;69.10;;;;;;5068876;28;20027;-74
2024/03/24 00:30:44;;;;;;;2.50;1.30;;;15.10;69.10;;;;;;5085702;28;20032;-74
2024/03/24 00:33:10;;;;;;;4.33;1.13;;;15.10;69.10;;;;;;5085324;28;20040;-75
2024/03/24 00:35:36;;;;;;;4.23;0.97;;;15.10;69.10;;;;;;5068830;28;20059;-74
2024/03/24 00:38:02;;;;;;;3.80;1.55;;;15.10;69.10;;;;;;5070527;28;20013;-74
2024/03/24 00:40:28;;;;;;;3.23;1.03;;;15.10;69.10;;;;;;5069426;28;20512;-74
2024/03/24 00:42:54;;;;;;;5.13;1.13;;;15.10;69.20;;;;;;5070290;28;20115;-74
2024/03/24 00:45:20;;;;;;;3.42;1.42;;;15.10;69.10;;;;;;5070203;28;20032;-74
2024/03/24 00:47:46;;;;;;;3.60;1.40;;;15.10;69.10;;;;;;5070154;28;20036;-75
2024/03/24 00:50:14;;;;;;;2.87;0.90;;;15.00;69.20;;;;;;5070167;28;20013;-74
2024/03/24 00:52:39;;;;;;;3.30;1.33;;;15.00;69.20;;;;;;5070019;28;20108;-74
2024/03/24 00:55:05;;;;;;;4.07;1.57;;;15.00;69.20;;;;;;5070251;28;20139;-74
2024/03/24 00:57:31;;;;;;;2.10;1.27;;;15.00;69.30;;;;;;5069904;28;20032;-74
2024/03/24 00:59:57;;;;;;;2.27;1.10;;;15.00;69.20;;;;;;5068548;28;20348;-74
2024/03/24 01:02:22;;;;;;;2.77;1.30;;;15.00;69.20;;;;;;5070255;28;20025;-74
2024/03/24 01:04:48;;;;;;;1.43;1.10;;;15.00;69.20;;;;;;5069705;28;20028;-74
2024/03/24 01:07:14;;;;;;;3.43;1.27;;;15.00;69.20;;;;;;5069662;28;20045;-74
2024/03/24 01:09:40;;;;;;;3.30;1.60;;;15.00;69.20;;;;;;5070133;28;20021;-74
2024/03/24 01:12:07;;;;;;;2.40;1.30;;;15.00;69.30;;;;;;5069884;28;20025;-74
2024/03/24 01:14:33;;;;;;;2.97;1.35;;;15.00;69.30;;;;;;5085160;28;20503;-73
2024/03/24 01:16:58;;;;;;;3.23;1.40;;;15.00;69.20;;;;;;5070218;28;20021;-74
2024/03/24 01:19:24;;;;;;;4.90;1.47;;;15.00;69.30;;;;;;5070043;28;20032;-74
2024/03/24 01:21:50;;;;;;;1.80;1.10;;;15.00;69.30;;;;;;5069989;28;20039;-74
2024/03/24 01:24:15;;;;;;;2.47;1.23;;;15.00;69.30;;;;;;5084666;28;20028;-77
2024/03/24 01:26:41;;;;;;;1.47;0.90;;;15.00;69.40;;;;;;5069593;28;20047;-74
2024/03/24 01:29:07;;;;;;;2.07;1.00;;;14.90;69.40;;;;;;5085169;28;20025;-74
2024/03/24 01:31:33;;;;;;;3.03;1.10;;;15.00;69.40;;;;;;5085346;28;20046;-74
2024/03/24 01:33:58;;;;;;;2.87;1.33;;;14.90;69.40;;;;;;5084961;28;20064;-74
2024/03/24 01:36:24;;;;;;;2.13;1.30;;;14.90;69.50;;;;;;5085207;28;20441;-74
2024/03/24 01:38:50;;;;;;;3.33;1.20;;;14.90;69.40;;;;;;5085622;28;20029;-74
2024/03/24 01:41:16;;;;;;;2.20;1.33;;;14.90;69.40;;;;;;5085245;28;20438;-74
2024/03/24 01:43:41;;;;;;;2.92;1.20;;;14.90;69.50;;;;;;5069737;28;20029;-74
2024/03/24 01:46:08;;;;;;;3.57;1.60;;;14.90;69.40;;;;;;5068016;28;20028;-74
2024/03/24 01:48:33;;;;;;;2.42;0.95;;;14.90;69.40;;;;;;5068958;28;20507;-74
2024/03/24 01:51:00;;;;;;;4.73;1.27;;;14.90;69.40;;;;;;5085117;28;20099;-74
2024/03/24 01:53:26;;;;;;;4.28;1.30;;;14.90;69.30;;;;;;5073215;28;20059;-74
2024/03/24 01:55:52;;;;;;;4.00;1.30;;;14.90;69.40;;;;;;5073413;28;20076;-74
2024/03/24 01:58:18;;;;;;;2.33;1.07;;;14.90;69.40;;;;;;5088814;28;20025;-74
2024/03/24 02:00:45;;;;;;;3.15;1.13;;;14.90;69.40;;;;;;5072906;28;20029;-74
2024/03/24 02:03:11;;;;;;;1.92;0.80;;;14.80;69.40;;;;;;5072880;28;20492;-74
2024/03/24 02:05:36;;;;;;;2.63;0.90;;;14.90;69.50;;;;;;5088471;28;20020;-74
2024/03/24 02:08:02;;;;;;;3.40;1.37;;;14.80;69.30;;;;;;5072987;28;20560;-74
2024/03/24 02:10:28;;;;;;;2.23;0.80;;;14.90;69.50;;;;;;5088149;28;20031;-74
2024/03/24 02:12:54;;;;;;;2.70;1.10;;;14.90;69.40;;;;;;5087579;28;20032;-75
2024/03/24 02:15:20;;;;;;;3.67;1.30;;;14.80;69.40;;;;;;5071419;28;20056;-74
2024/03/24 02:17:45;;;;;;;5.50;1.30;;;14.80;69.40;;;;;;5072702;28;20078;-74
2024/03/24 02:20:14;;;;;;;6.07;1.00;;;14.80;69.30;;;;;;5072297;28;20039;-74
2024/03/24 02:22:42;;;;;;;3.00;1.58;;;14.80;69.20;;;;;;5088112;28;20028;-75
2024/03/24 02:25:08;;;;;;;6.00;1.55;;;14.80;69.30;;;;;;5071772;28;20025;-74
2024/03/24 02:27:35;;;;;;;1.92;1.02;;;14.80;69.10;;;;;;5072474;28;20047;-74
2024/03/24 02:30:00;;;;;;;2.92;1.25;;;14.80;69.20;;;;;;5072925;28;20063;-74
2024/03/24 02:32:26;;;;;;;3.53;1.10;;;14.80;69.10;;;;;;5072188;28;20048;-74
2024/03/24 02:34:53;;;;;;;5.43;1.63;;;14.80;69.20;;;;;;5072420;28;20103;-74
2024/03/24 02:37:19;;;;;;;3.83;1.60;;;14.80;69.10;;;;;;5070905;28;20789;-74
2024/03/24 02:39:46;;;;;;;3.45;1.08;;;14.80;69.10;;;;;;5071029;28;20024;-74
2024/03/24 02:42:12;;;;;;;3.22;1.50;;;14.70;69.10;;;;;;5087979;28;20070;-74
2024/03/24 02:44:41;;;;;;;5.07;1.70;;;14.80;69.10;;;;;;5072521;28;20032;-74
2024/03/24 02:47:07;;;;;;;5.22;1.55;;;14.80;69.10;;;;;;5071590;28;20444;-74
2024/03/24 02:49:33;;;;;;;3.10;1.13;;;14.70;69.10;;;;;;5071318;28;20056;-73
2024/03/24 02:51:59;;;;;;;6.93;1.30;;;14.70;69.10;;;;;;5070910;28;20028;-74
2024/03/24 02:54:25;;;;;;;3.17;1.20;;;14.70;69.10;;;;;;5070162;28;20033;-74
2024/03/24 02:56:50;;;;;;;3.80;1.20;;;14.70;69.20;;;;;;5070802;28;20021;-74
2024/03/24 02:59:16;;;;;;;4.87;1.30;;;14.70;69.10;;;;;;5087268;28;20028;-74
2024/03/24 03:01:42;;;;;;;2.07;1.27;;;14.70;69.10;;;;;;5087396;28;20470;-74
2024/03/24 03:04:08;;;;;;;1.40;0.90;;;14.70;69.10;;;;;;5068280;28;20103;-74
2024/03/24 03:06:34;;;;;;;2.78;1.02;;;14.70;69.10;;;;;;5086469;28;20201;-74
2024/03/24 03:09:00;;;;;;;4.97;1.45;;;14.70;69.10;;;;;;5071510;28;20103;-74
2024/03/24 03:11:26;;;;;;;3.20;1.10;;;14.60;69.00;;;;;;5070296;28;20028;-73
2024/03/24 03:13:51;;;;;;;4.87;1.20;;;14.60;69.00;;;;;;5070230;28;20119;-74
2024/03/24 03:16:17;;;;;;;4.90;1.30;;;14.60;69.00;;;;;;5071810;28;20025;-74
2024/03/24 03:18:43;;;;;;;3.10;1.07;;;14.60;69.00;;;;;;5086243;28;20632;-74
2024/03/24 03:21:08;;;;;;;2.23;0.90;;;14.60;69.10;;;;;;5087087;28;20020;-74
2024/03/24 03:23:34;;;;;;;2.50;1.43;;;14.60;69.00;;;;;;5071331;28;20293;-74
2024/03/24 03:26:00;;;;;;;2.30;1.00;;;14.60;69.10;;;;;;5087362;28;20127;-73
2024/03/24 03:28:26;;;;;;;4.82;1.13;;;14.60;69.10;;;;;;5086907;28;20031;-74
2024/03/24 03:30:52;;;;;;;3.93;1.57;;;14.60;69.10;;;;;;5069660;28;20364;-74
2024/03/24 03:33:17;;;;;;;3.63;1.43;;;14.60;69.00;;;;;;5071276;28;20443;-74
2024/03/24 03:35:43;;;;;;;2.83;0.90;;;14.50;69.00;;;;;;5070709;28;20025;-73
2024/03/24 03:38:09;;;;;;;2.37;1.13;;;14.50;69.00;;;;;;5086597;28;20024;-74
2024/03/24 03:40:34;;;;;;;4.67;1.07;;;14.50;69.00;;;;;;5069845;28;20024;-74
2024/03/24 03:43:00;;;;;;;1.70;0.80;;;14.50;68.90;;;;;;5086018;28;20509;-74
2024/03/24 03:45:26;;;;;;;1.37;0.70;;;14.50;68.90;;;;;;5069924;28;20070;-73
2024/03/24 03:47:52;;;;;;;2.50;1.20;;;14.50;69.00;;;;;;5085266;28;20024;-74
2024/03/24 03:50:20;;;;;;;1.77;0.80;;;14.50;68.90;;;;;;5086369;28;20021;-74
2024/03/24 03:52:49;;;;;;;4.93;0.88;;;14.50;69.00;;;;;;5069145;28;20029;-74
2024/03/24 03:55:15;;;;;;;2.17;0.85;;;14.50;69.00;;;;;;5069066;28;20388;-74
2024/03/24 03:57:44;;;;;;;3.03;0.93;;;14.50;68.90;;;;;;5069319;28;20347;-74
2024/03/24 04:00:10;;;;;;;2.13;0.75;;;14.40;69.00;;;;;;5086213;28;20533;-74
2024/03/24 04:02:44;;;;;;;2.95;1.10;;;14.50;68.90;;;;;;5085970;28;20098;-74
2024/03/24 04:05:09;;;;;;;1.67;0.77;;;14.40;69.00;;;;;;5055800;28;20488;-74
2024/03/24 04:07:36;;;;;;;1.20;0.80;;;14.40;68.90;;;;;;5085040;28;20045;-74
2024/03/24 04:10:04;;;;;;;2.30;1.13;;;14.40;69.00;;;;;;5070503;28;20074;-74
2024/03/24 04:12:29;;;;;;;1.88;0.77;;;14.40;69.00;;;;;;5069812;28;20503;-74
2024/03/24 04:14:58;;;;;;;2.30;0.70;;;14.40;69.00;;;;;;5070147;28;20028;-74
2024/03/24 04:17:24;;;;;;;1.60;0.70;;;14.40;69.00;;;;;;5086097;28;20024;-74
2024/03/24 04:19:49;;;;;;;1.50;0.97;;;14.40;68.90;;;;;;5069376;28;20032;-74
2024/03/24 04:22:15;;;;;;;3.17;0.87;;;14.40;69.00;;;;;;5085081;28;20043;-75
2024/03/24 04:24:41;;;;;;;1.93;0.77;;;14.40;69.00;;;;;;5070204;28;20508;-74
2024/03/24 04:27:07;;;;;;;1.17;0.60;;;14.40;69.10;;;;;;5085781;28;20112;-74
2024/03/24 04:29:32;;;;;;;2.07;0.80;;;14.30;69.10;;;;;;5076033;28;20070;-74
2024/03/24 04:31:58;;;;;;;1.27;0.70;;;14.30;69.10;;;;;;5069716;28;20024;-74
2024/03/24 04:34:24;;;;;;;1.50;0.77;;;14.30;69.10;;;;;;5070228;28;20037;-74
2024/03/24 04:36:49;;;;;;;1.30;0.70;;;14.30;69.10;;;;;;5085265;28;20481;-74
2024/03/24 04:39:18;;;;;;;2.13;0.70;;;14.30;69.10;;;;;;5070300;28;20100;-74
2024/03/24 04:41:46;;;;;;;2.35;0.95;;;14.30;69.10;;;;;;5084945;28;20214;-74
2024/03/24 04:44:11;;;;;;;2.00;0.70;;;14.30;69.10;;;;;;5069777;28;20025;-74
2024/03/24 04:46:37;;;;;;;2.40;0.97;;;14.30;69.20;;;;;;5085355;28;20144;-74
2024/03/24 04:49:04;;;;;;;2.43;0.60;;;14.30;69.20;;;;;;5070164;28;20064;-74
2024/03/24 04:51:30;;;;;;;2.90;0.85;;;14.30;69.20;;;;;;5085350;28;20093;-74
2024/03/24 04:53:59;;;;;;;1.00;0.57;;;14.30;69.20;;;;;;5085482;28;20067;-74
2024/03/24 04:56:25;;;;;;;0.73;0.60;;;14.30;69.30;;;;;;5085746;28;20105;-74
2024/03/24 04:58:50;;;;;;;0.90;0.53;;;14.30;69.40;;;;;;5069870;28;20021;-74
2024/03/24 05:01:16;;;;;;;2.40;0.80;;;14.20;69.40;;;;;;5068312;28;20016;-74
2024/03/24 05:03:42;;;;;;;3.90;0.88;;;14.20;69.30;;;;;;5085178;28;20028;-74
2024/03/24 05:06:09;;;;;;;2.50;0.77;;;14.20;69.30;;;;;;5085122;28;20037;-74
2024/03/24 05:08:36;;;;;;;0.93;0.60;;;14.20;69.30;;;;;;5084816;28;20032;-74
2024/03/24 05:11:06;;;;;;;1.77;0.60;;;14.20;69.30;;;;;;5069411;28;20027;-74
2024/03/24 05:13:32;;;;;;;1.88;0.70;;;14.20;69.40;;;;;;5085298;28;20044;-74
2024/03/24 05:15:59;;;;;;;1.70;0.70;;;14.20;69.40;;;;;;5085221;28;20037;-75
2024/03/24 05:18:25;;;;;;;1.40;0.80;;;14.20;69.40;;;;;;5069015;28;20031;-74
2024/03/24 05:20:50;;;;;;;3.25;0.73;;;14.20;69.40;;;;;;5069694;28;20032;-74
2024/03/24 05:23:19;;;;;;;1.67;0.60;;;14.20;69.30;;;;;;5069285;28;20480;-74
2024/03/24 05:25:55;;;;;;;4.00;0.82;;;14.20;69.40;;;;;;5085215;28;20098;-74
2024/03/24 05:28:21;;;;;;;0.40;0.40;;;14.20;69.40;;;;;;5088390;28;20369;-74
2024/03/24 05:30:50;;;;;;;4.75;0.80;;;14.20;69.40;;;;;;5089096;28;20039;-74
2024/03/24 05:33:16;;;;;;;3.17;0.70;;;14.20;69.40;;;;;;5073508;28;20462;-74
2024/03/24 05:35:42;;;;;;;2.38;0.57;;;14.10;69.40;;;;;;5073277;28;20017;-74
2024/03/24 05:38:08;;;;;;;1.10;0.70;;;14.10;69.40;;;;;;5073543;28;20032;-74
2024/03/24 05:40:34;;;;;;;3.80;0.70;;;14.10;69.50;;;;;;5073027;28;20299;-74
2024/03/24 05:43:00;;;;;;;1.70;0.70;;;14.10;69.40;;;;;;5072097;28;20603;-74
2024/03/24 05:45:25;;;;;;;8.13;1.00;;;14.10;69.40;;;;;;5088790;28;20483;-73
2024/03/24 05:47:51;;;;;;;1.27;0.47;;;14.10;69.40;;;;;;5088498;28;20028;-74
2024/03/24 05:50:17;;;;;;;3.17;0.70;;;14.10;69.50;;;;;;5072477;28;20056;-74
2024/03/24 05:52:42;;;;;;;1.10;0.70;;;14.10;69.30;;;;;;5088645;28;20078;-74
2024/03/24 05:55:09;;;;;;;3.47;1.10;;;14.10;69.40;;;;;;5088828;28;20025;-74
2024/03/24 05:57:35;;;;;;;1.05;0.60;;;14.10;69.40;;;;;;5072542;28;20465;-73
2024/03/24 06:00:03;;;;;;;3.42;0.65;;;14.10;69.30;;;;;;5073205;28;20063;-74
2024/03/24 06:02:29;;;;;;;1.70;0.63;;;14.10;69.30;;;;;;5088090;28;20067;-74
2024/03/24 06:04:55;;;;;;;1.83;0.60;;;14.00;69.30;;;;;;5073460;28;20052;-73
2024/03/24 06:07:22;;;;;;;4.57;0.80;;;14.10;69.30;;;;;;5088499;28;20079;-74
2024/03/24 06:09:48;;;;;;;3.30;0.90;;;14.10;69.30;;;;;;5088097;28;20017;-74
2024/03/24 06:12:14;;;;;;;1.20;0.63;;;14.10;69.30;;;;;;5088471;28;20424;-74
2024/03/24 06:14:40;;;;;;;1.23;0.57;;;14.10;69.20;;;;;;5072627;28;20033;-74
2024/03/24 06:17:07;;;;;;;1.53;0.70;;;14.10;69.20;;;;;;5071444;28;20020;-73
2024/03/24 06:19:35;;;;;;;3.10;0.63;;;14.20;69.00;;;;;;5072956;28;20029;-74
2024/03/24 06:22:01;;;;;;;3.85;0.75;;;14.20;68.80;;;;;;5088255;28;20079;-74
2024/03/24 06:24:27;;;;;;;2.83;0.90;;;14.20;68.80;;;;;;5088375;28;20024;-74
2024/03/24 06:26:53;;;;;;;1.50;0.50;;;14.20;68.70;;;;;;5072087;28;20048;-74
2024/03/24 06:29:19;;;;;;;2.30;0.75;;;14.10;68.80;;;;;;5072989;28;20025;-73
2024/03/24 06:31:44;;;;;;;1.80;0.73;;;14.20;68.90;;;;;;5088186;28;20029;-73
2024/03/24 06:34:10;;;;;;;11.73;1.20;;;14.20;68.80;;;;;;5072674;28;20116;-74
2024/03/24 06:36:40;;;;;;;0.90;0.60;;;14.20;68.60;;;;;;5072446;28;20035;-74
2024/03/24 06:39:06;;;;;;;2.55;0.68;;;14.30;68.50;;;;;;5072062;28;20024;-73
2024/03/24 06:41:38;;;;;;;2.15;0.60;;;14.30;68.30;;;;;;5072534;28;20032;-74
2024/03/24 06:44:13;;;;;;;3.70;0.70;;;14.30;68.40;;;;;;5087843;28;20115;-74
2024/03/24 06:46:42;;;;;;;1.13;0.70;;;14.30;68.30;;;;;;5072329;28;20056;-73
2024/03/24 06:49:08;;;;;;;1.98;0.70;;;14.40;67.90;;;;;;5070583;28;20021;-74
2024/03/24 06:51:34;;;;;;;4.73;0.63;;;14.40;68.00;;;;;;5071014;28;20035;-74
2024/03/24 06:54:00;;;;;;;2.97;1.30;;;14.40;67.90;;;;;;5071791;28;20569;-74
2024/03/24 06:56:26;;;;;;;4.80;0.80;;;14.40;67.80;;;;;;5070769;28;20039;-74
2024/03/24 06:58:52;;;;;;;2.95;0.68;;;14.50;67.50;;;;;;5071687;28;20061;-74
2024/03/24 07:01:18;;;;;;;1.75;0.55;;;14.70;67.00;;;;;;5072103;28;20075;-74
2024/03/24 07:03:44;;;;;;;1.53;0.60;;;15.00;66.20;;;;;;5072139;28;20048;-74
2024/03/24 07:06:13;;;;;;;2.53;1.27;;;15.00;65.80;;;;;;5087062;28;20044;-74
2024/03/24 07:08:39;;;;;;;1.85;0.60;;;14.90;66.10;;;;;;5071431;28;20043;-74
2024/03/24 07:11:05;;;;;;;4.55;0.90;;;14.70;66.50;;;;;;5071650;28;20139;-74
2024/03/24 07:13:30;;;;;;;0.93;0.40;;;14.70;66.90;;;;;;5070042;28;20064;-74
2024/03/24 07:15:56;;;;;;;3.30;0.70;;;14.60;67.00;;;;;;5071331;28;20021;-74
2024/03/24 07:18:22;;;;;;;3.83;0.80;;;14.60;67.10;;;;;;5069949;28;20422;-74
2024/03/24 07:20:56;;;;;;;2.87;1.00;;;14.60;67.20;;;;;;5086823;28;20025;-74
2024/03/24 07:23:22;;;;;;;1.10;0.60;;;14.60;67.20;;;;;;5070950;28;20491;-74
2024/03/24 07:25:48;;;;;;;1.70;0.80;;;14.60;67.10;;;;;;5086682;28;20064;-73
2024/03/24 07:28:13;;;;;;;2.90;0.73;;;14.70;66.90;;;;;;5070028;28;20373;-74
2024/03/24 07:30:39;;;;;;;4.37;1.03;;;14.70;66.80;;;;;;5071013;28;20110;-74
2024/03/24 07:33:05;;;;;;;4.87;0.90;;;14.60;67.00;;;;;;5070993;28;20046;-73
2024/03/24 07:35:30;;;;;;;1.83;0.63;;;14.60;67.10;;;;;;5069929;28;20021;-74
2024/03/24 07:37:56;;;;;;;4.43;0.97;;;14.60;67.20;;;;;;5071083;28;20028;-74
2024/03/24 07:40:22;;;;;;;3.60;0.80;;;14.60;67.20;;;;;;5070722;28;20082;-74
2024/03/24 07:42:48;;;;;;;4.95;0.85;;;14.50;67.20;;;;;;5071196;28;20027;-74
2024/03/24 07:45:14;;;;;;;7.07;1.33;;;14.50;67.40;;;;;;5069710;28;20028;-74
2024/03/24 07:47:39;;;;;;;2.47;1.10;;;14.50;67.40;;;;;;5069554;28;20020;-74
2024/03/24 07:50:06;;;;;;;1.90;0.90;;;14.50;67.50;;;;;;5070502;28;20028;-73
2024/03/24 07:52:31;;;;;;;4.13;0.85;;;14.50;67.50;;;;;;5070730;28;20193;-74
2024/03/24 07:54:57;;;;;;;7.50;1.20;;;14.50;67.50;;;;;;5071055;28;20111;-74
2024/03/24 07:57:23;;;;;;;2.83;0.73;;;14.50;67.50;;;;;;5086261;28;20118;-74
2024/03/24 07:59:48;;;;;;;6.70;1.27;;;14.50;67.50;;;;;;5084966;28;20024;-74
2024/03/24 08:02:14;;;;;;;1.60;0.70;;;14.50;67.50;;;;;;5070543;28;20036;-75
2024/03/24 08:04:40;;;;;;;3.10;1.23;;;14.50;67.50;;;;;;5069068;28;20029;-74
2024/03/24 08:07:06;;;;;;;7.03;1.20;;;14.50;67.60;;;;;;5070109;28;20052;-75
2024/03/24 08:09:31;;;;;;;27.57;24.97;;;14.40;67.60;;;;;;5069256;28;20052;-74
2024/03/24 08:11:57;;;;;;;15.57;11.23;;;14.60;67.40;;;;;;5070401;28;20058;-73
2024/03/24 08:14:23;;;;;;;10.97;9.47;;;14.70;67.00;;;;;;5069640;28;20031;-74
2024/03/24 08:16:48;;;;;;;11.23;10.17;;;14.70;67.00;;;;;;5075129;28;20801;-74
2024/03/24 08:19:14;;;;;;;12.13;9.20;;;14.70;67.00;;;;;;5069404;28;20029;-73
2024/03/24 08:21:40;;;;;;;12.17;11.07;;;14.70;67.20;;;;;;5070653;28;20082;-73
2024/03/24 08:24:06;;;;;;;10.97;9.17;;;14.70;67.30;;;;;;5069518;28;20074;-73
2024/03/24 08:26:31;;;;;;;10.50;7.40;;;14.70;67.30;;;;;;5070607;28;20038;-74
2024/03/24 08:28:57;;;;;;;9.07;7.37;;;14.80;67.30;;;;;;5070680;28;20091;-74
2024/03/24 08:31:24;;;;;;;9.70;7.40;;;14.70;67.20;;;;;;5069985;28;20052;-74
2024/03/24 08:33:50;;;;;;;31.30;16.75;;;14.70;67.40;;;;;;5060351;28;20024;-74
2024/03/24 08:36:17;;;;;;;16.27;10.60;;;14.70;67.90;;;;;;5070327;28;20081;-74
2024/03/24 08:38:43;;;;;;;;;;;14.70;67.90;;;;;;5070661;28;20098;-74
2024/03/24 08:41:12;;;;;;;14.25;8.75;;;14.70;67.80;;;;;;5068735;28;19904;-74
2024/03/24 08:43:38;;;;;;;11.25;6.93;;;14.70;67.60;;;;;;5068532;28;20097;-74
2024/03/24 08:46:04;;;;;;;10.80;7.07;;;14.80;67.70;;;;;;5070184;28;20025;-74
2024/03/24 08:48:29;;;;;;;11.70;7.13;;;14.80;67.60;;;;;;5069180;28;20623;-75
2024/03/24 08:50:55;;;;;;;20.00;13.73;;;14.70;67.70;;;;;;5069703;28;20028;-73
2024/03/24 08:53:21;;;;;;;12.20;10.83;;;14.70;67.90;;;;;;5069968;28;20043;-72
2024/03/24 08:55:46;;;;;;;12.77;9.07;;;14.70;68.10;;;;;;5069560;28;20400;-73
2024/03/24 08:58:12;;;;;;;13.80;9.73;;;14.70;68.10;;;;;;5068401;28;20028;-73
2024/03/24 09:00:38;;;;;;;12.87;8.13;;;14.70;68.10;;;;;;5069194;28;20096;-72
2024/03/24 09:03:04;;;;;;;14.00;7.60;;;14.70;68.10;;;;;;5072039;28;20028;-73
2024/03/24 09:05:29;;;;;;;9.70;7.37;;;14.70;68.10;;;;;;5072232;28;20571;-73
2024/03/24 09:07:55;;;;;;;9.10;6.70;;;14.70;68.00;;;;;;5073655;28;20024;-73
2024/03/24 09:10:21;;;;;;;10.30;6.97;;;14.80;67.90;;;;;;5072160;28;20032;-73
2024/03/24 09:12:46;;;;;;;11.63;6.20;;;14.80;68.00;;;;;;5073903;28;20035;-73
2024/03/24 09:15:12;;;;;;;11.43;6.20;;;14.70;68.10;;;;;;5073623;28;20024;-73
2024/03/24 09:17:38;;;;;;;11.43;6.57;;;14.70;68.20;;;;;;5074167;28;20028;-73
2024/03/24 09:20:04;;;;;;;10.27;5.43;;;14.80;68.20;;;;;;5073879;28;20071;-73
2024/03/24 09:22:30;;;;;;;7.35;4.70;;;14.80;68.20;;;;;;5073836;28;20381;-74
2024/03/24 09:24:55;;;;;;;8.43;5.03;;;14.80;68.20;;;;;;5072610;28;20074;-73
2024/03/24 09:27:21;;;;;;;7.83;5.63;;;14.80;68.30;;;;;;5074051;28;20074;-73
2024/03/24 09:29:47;;;;;;;13.60;7.83;;;14.80;68.30;;;;;;5073995;28;20029;-72
2024/03/24 09:32:12;;;;;;;14.00;8.57;;;14.80;68.40;;;;;;5073168;28;20025;-72
2024/03/24 09:34:39;;;;;;;17.30;8.40;;;14.70;68.40;;;;;;5072912;28;20048;-72
2024/03/24 09:37:05;;;;;;;17.98;7.88;;;14.80;68.30;;;;;;5073388;28;20021;-73
2024/03/24 09:39:30;;;;;;;16.40;6.27;;;14.90;68.10;;;;;;5089104;28;20063;-72
2024/03/24 09:41:58;;;;;;;14.30;6.60;;;15.00;67.50;;;;;;5088598;28;20130;-72
2024/03/24 09:44:25;;;;;;;11.10;6.30;;;15.10;67.40;;;;;;5088426;28;20028;-72
2024/03/24 09:46:51;;;;;;;10.65;6.00;;;15.00;67.40;;;;;;5072059;28;20054;-75
2024/03/24 09:49:16;;;;;;;8.80;6.17;;;15.00;67.40;;;;;;5089004;28;20048;-74
2024/03/24 09:51:44;;;;;;;12.87;5.70;;;15.10;67.40;;;;;;5088439;28;20147;-74
2024/03/24 09:54:14;;;;;;;9.45;6.20;;;15.30;66.80;;;;;;5071614;28;20040;-73
2024/03/24 09:56:40;;;;;;;7.35;5.32;;;15.70;65.80;;;;;;5072711;28;20122;-73
2024/03/24 09:59:07;;;;;;;11.10;5.75;;;15.90;64.90;;;;;;5073034;28;20100;-73
2024/03/24 10:01:37;;;;;;;9.55;4.93;;;15.70;65.30;;;;;;5088709;28;20061;-73
2024/03/24 10:04:04;;;;;;;9.32;5.00;;;15.60;65.70;;;;;;5072750;28;20031;-73
2024/03/24 10:06:31;;;;;;;11.07;4.97;;;15.50;65.90;;;;;;5088167;28;20388;-73
2024/03/24 10:08:57;;;;;;;6.13;4.35;;;15.60;66.00;;;;;;5071521;28;20056;-73
2024/03/24 10:11:30;;;;;;;9.60;4.30;;;15.50;66.10;;;;;;5071899;28;20097;-73
2024/03/24 10:13:57;;;;;;;8.02;5.20;;;15.50;66.10;;;;;;5088033;28;20024;-74
2024/03/24 10:16:23;;;;;;;17.88;4.50;;;15.70;65.70;;;;;;5072961;28;20021;-74
2024/03/24 10:18:50;;;;;;;9.63;5.27;;;15.90;65.00;;;;;;5073218;28;20024;-74
2024/03/24 10:21:17;;;;;;;7.65;3.72;;;16.20;64.20;;;;;;5072459;28;20048;-74
2024/03/24 10:23:44;;;;;;;6.97;3.88;;;16.40;62.80;;;;;;5088054;28;20028;-74
2024/03/24 10:26:10;;;;;;;9.80;4.85;;;16.50;62.70;;;;;;5072588;28;20529;-74
2024/03/24 10:28:36;;;;;;;9.43;4.30;;;16.50;62.70;;;;;;5072626;28;20035;-74
2024/03/24 10:31:09;;;;;;;9.57;4.20;;;16.80;62.10;;;;;;5072707;28;20036;-74
2024/03/24 10:33:41;;;;;;;9.68;3.60;;;16.90;61.80;;;;;;5072485;28;20039;-74
2024/03/24 10:36:07;;;;;;;7.63;3.60;;;16.90;61.40;;;;;;5071984;28;20025;-74
2024/03/24 10:38:36;;;;;;;6.45;4.18;;;17.00;61.20;;;;;;5072254;28;20037;-74
2024/03/24 10:41:06;;;;;;;9.27;3.67;;;17.10;61.00;;;;;;5086793;28;20028;-74
2024/03/24 10:43:34;;;;;;;8.95;4.25;;;17.30;60.40;;;;;;5088063;28;20162;-74
2024/03/24 10:46:00;;;;;;;7.47;3.45;;;16.80;61.80;;;;;;5072288;28;20019;-74
2024/03/24 10:48:32;;;;;;;10.38;3.88;;;16.40;63.00;;;;;;5072124;28;20051;-73
2024/03/24 10:51:00;;;;;;;8.73;3.00;;;16.20;63.70;;;;;;5072198;28;20027;-74
2024/03/24 10:53:28;;;;;;;11.35;3.67;;;16.10;64.10;;;;;;5072168;28;20025;-74
2024/03/24 10:55:58;;;;;;;10.50;3.22;;;16.10;64.20;;;;;;5087218;28;20098;-73
2024/03/24 10:58:25;;;;;;;7.75;3.00;;;16.70;62.80;;;;;;5069105;28;20028;-74
2024/03/24 11:00:52;;;;;;;6.10;2.75;;;17.60;60.30;;;;;;5071032;28;20396;-74
2024/03/24 11:03:19;;;;;;;;;;;17.40;60.40;;;;;;5072333;28;20107;-74
2024/03/24 11:05:49;;;;;;;4.90;2.50;;;17.10;61.10;;;;;;5071539;28;19916;-74
2024/03/24 11:08:17;;;;;;;5.70;2.58;;;17.00;62.00;;;;;;5087464;28;20044;-73
2024/03/24 11:10:48;;;;;;;6.13;2.67;;;16.70;63.00;;;;;;5087541;28;20517;-74
2024/03/24 11:13:17;;;;;;;5.50;2.55;;;16.70;63.50;;;;;;5071015;28;20643;-73
2024/03/24 11:15:46;;;;;;;7.90;2.67;;;16.50;64.30;;;;;;5071622;28;20031;-73
2024/03/24 11:18:24;;;;;;;6.05;2.00;;;16.50;64.50;;;;;;5070512;28;20415;-73
2024/03/24 11:20:54;;;;;;;5.32;2.30;;;16.50;64.50;;;;;;5072172;28;20115;-74
2024/03/24 11:23:41;;;;;;;6.47;3.08;;;16.50;64.50;;;;;;5071042;28;20456;-73
2024/03/24 11:26:13;;;;;;;8.63;2.47;;;16.40;64.90;;;;;;5070621;28;20537;-73
2024/03/24 11:28:43;;;;;;;5.30;2.10;;;16.50;65.00;;;;;;5085520;28;20033;-73
2024/03/24 11:31:20;;;;;;;7.25;2.80;;;17.00;63.50;;;;;;5071669;28;20020;-74
2024/03/24 11:34:10;;;;;;;6.72;2.15;;;17.00;63.40;;;;;;5086982;28;20028;-74
2024/03/24 11:36:38;;;;;;;4.32;1.75;;;16.90;63.80;;;;;;5070991;28;20535;-74
2024/03/24 11:39:07;;;;;;;4.90;2.20;;;17.10;63.80;;;;;;5070697;28;20025;-74
2024/03/24 11:41:35;;;;;;;5.88;2.42;;;17.30;62.80;;;;;;5071264;28;20044;-74
2024/03/24 11:44:04;;;;;;;7.03;2.83;;;17.40;62.40;;;;;;5071205;28;20050;-74
2024/03/24 11:46:31;;;;;;;6.03;2.10;;;17.30;62.60;;;;;;5086832;28;20758;-74
2024/03/24 11:48:59;;;;;;;6.75;2.40;;;17.20;63.10;;;;;;5069307;28;20043;-74
2024/03/24 11:51:25;;;;;;;9.13;2.28;;;17.20;63.10;;;;;;5086417;28;20024;-74
2024/03/24 11:53:52;;;;;;;;;;;17.30;63.00;;;;;;5070736;28;20024;-74
2024/03/24 11:56:21;;;;;;;7.60;2.45;;;17.40;62.60;;;;;;5071040;28;19904;-73
2024/03/24 11:58:52;;;;;;;8.75;2.38;;;17.40;62.50;;;;;;5070765;28;20462;-74
2024/03/24 12:01:19;;;;;;;5.60;2.38;;;17.60;62.40;;;;;;5070606;28;20032;-75
2024/03/24 12:03:48;;;;;;;4.10;1.80;;;17.70;62.20;;;;;;5070693;28;20024;-75
2024/03/24 12:06:16;;;;;;;7.68;2.17;;;17.60;62.30;;;;;;5070116;28;20072;-74
2024/03/24 12:08:44;;;;;;;6.50;2.20;;;17.30;63.40;;;;;;5061088;28;20111;-74
2024/03/24 12:11:09;;;;;;;8.55;2.25;;;17.10;64.10;;;;;;5068969;28;20175;-75
2024/03/24 12:13:36;;;;;;;7.75;1.95;;;17.10;64.50;;;;;;5068753;28;20040;-74
2024/03/24 12:16:04;;;;;;;5.60;2.23;;;17.10;64.30;;;;;;5070109;28;20035;-74
2024/03/24 12:18:30;;;;;;;7.80;2.10;;;17.20;64.30;;;;;;5069940;28;20024;-74
2024/03/24 12:20:59;;;;;;;4.13;1.80;;;17.40;63.80;;;;;;5086196;28;20032;-75
2024/03/24 12:23:26;;;;;;;9.90;2.50;;;17.50;63.50;;;;;;5069993;28;20093;-75
2024/03/24 12:25:53;;;;;;;5.25;2.03;;;17.50;63.20;;;;;;5070278;28;20024;-74
2024/03/24 12:28:20;;;;;;;6.28;2.22;;;17.60;63.20;;;;;;5068396;28;20028;-74
2024/03/24 12:30:57;;;;;;;3.97;1.90;;;17.60;63.10;;;;;;5070274;28;20017;-75
2024/03/24 12:33:23;;;;;;;;;;;17.50;63.50;;;;;;5086003;28;20029;-74
2024/03/24 12:35:50;;;;;;;7.78;2.70;;;17.30;64.20;;;;;;5067956;28;19905;-74
2024/03/24 12:38:19;;;;;;;11.35;3.53;;;17.20;64.60;;;;;;5085386;28;20052;-74
2024/03/24 12:40:57;;;;;;;12.32;2.53;;;17.20;65.00;;;;;;5067807;28;20028;-74
2024/03/24 12:43:27;;;;;;;15.07;2.72;;;17.10;65.10;;;;;;5070345;28;20029;-74